Terminal Aerodrome Forecast
Issued by NWS Upton, NY

Home | Current Version | Previous Version | Text Only | Print | Product List | Glossary On
Versions: 1 2 3 4 5 6 7 8 9 10 11 12 13 14 15 16 17 18 19 20 21 22 23 24
000
FTUS41 KOKX 310200 AAA
TAFBDR
TAF AMD
KBDR 310230Z 3103/3124 20010KT P6SM FEW025 SCT040
     FM310400 20006KT P6SM SCT025 BKN040
      TEMPO 3106/3109 SCT015 BKN025
     FM310900 20007KT 6SM BR BKN015
     FM311500 21008KT P6SM FEW025 SCT040
     FM311900 19010G16KT P6SM SCT020 SCT040=

USA.gov is the U.S. government's official web portal to all federal, state and local government web resources and services.